PUA2540 SUMU-SBRF
Flight info
| Callsign | PUA2540 |
|---|---|
| Flight time | 4h 32m |
| Altitude | 31000 |
| Route | CRR UM661 TOLEP UM424 ARVUS UM540 UGTEK/N0462F330 UM540 ANISE UZ23 ANBEX |
| Aircraft | A321/M-SDE3FGHIRWY/LB1 |
Departure
| Time | 2026-05-08 22:29 |
|---|---|
| Airport | Carrasco General Cesáreo L. Berisso International Airport (SUMU) |
Arrival
| Time | 2026-05-09 03:01 |
|---|---|
| Airport | Recife/Guararapes - Gilberto Freyre International Airport (SBRF) |
| Time | Latitude | Longitude | Altitude | Speed | Heading |
|---|---|---|---|---|---|
| 2026-05-08 21:45 | -34.83576 | -56.01726 | 86 ft | 0 kts | 143° |
| 2026-05-08 22:20 | -34.83565 | -56.01735 | 84 ft | 4 kts | 141° |
| 2026-05-08 22:20 | -34.83546 | -56.01755 | 82 ft | 4 kts | 135° |
| 2026-05-08 22:21 | -34.83530 | -56.01777 | 85 ft | 4 kts | 121° |
| 2026-05-08 22:21 | -34.83521 | -56.01802 | 83 ft | 4 kts | 82° |
| 2026-05-08 22:21 | -34.83526 | -56.01817 | 84 ft | 1 kts | 53° |
| 2026-05-08 22:21 | -34.83527 | -56.01819 | 84 ft | 0 kts | 53° |
| 2026-05-08 22:23 | -34.83526 | -56.01818 | 82 ft | 0 kts | 53° |
| 2026-05-08 22:24 | -34.83523 | -56.01813 | 82 ft | 1 kts | 53° |
| 2026-05-08 22:24 | -34.83490 | -56.01770 | 85 ft | 12 kts | 32° |
| 2026-05-08 22:24 | -34.83392 | -56.01815 | 83 ft | 18 kts | 323° |
| 2026-05-08 22:24 | -34.83289 | -56.01832 | 87 ft | 16 kts | 40° |
| 2026-05-08 22:25 | -34.83218 | -56.01727 | 84 ft | 15 kts | 54° |
| 2026-05-08 22:25 | -34.83161 | -56.01633 | 84 ft | 13 kts | 53° |
| 2026-05-08 22:25 | -34.83114 | -56.01556 | 85 ft | 10 kts | 53° |
| 2026-05-08 22:25 | -34.83077 | -56.01494 | 84 ft | 8 kts | 56° |
| 2026-05-08 22:26 | -34.83021 | -56.01398 | 86 ft | 17 kts | 53° |
| 2026-05-08 22:26 | -34.82956 | -56.01294 | 86 ft | 15 kts | 53° |
| 2026-05-08 22:26 | -34.82884 | -56.01237 | 85 ft | 12 kts | 356° |
| 2026-05-08 22:26 | -34.82823 | -56.01284 | 83 ft | 9 kts | 321° |
| 2026-05-08 22:27 | -34.82782 | -56.01323 | 83 ft | 6 kts | 322° |
| 2026-05-08 22:27 | -34.82782 | -56.01352 | 84 ft | 5 kts | 237° |
| 2026-05-08 22:27 | -34.82793 | -56.01367 | 83 ft | 0 kts | 231° |
| 2026-05-08 22:28 | -34.82869 | -56.01490 | 86 ft | 50 kts | 233° |
| 2026-05-08 22:28 | -34.83206 | -56.02054 | 83 ft | 114 kts | 233° |
| 2026-05-08 22:28 | -34.83792 | -56.03007 | 84 ft | 164 kts | 233° |
| 2026-05-08 22:28 | -34.84513 | -56.04185 | 542 ft | 173 kts | 238° |
| 2026-05-08 22:29 | -34.84943 | -56.05522 | 1258 ft | 172 kts | 274° |
| 2026-05-08 22:29 | -34.84452 | -56.06822 | 1936 ft | 181 kts | 310° |
| 2026-05-08 22:29 | -34.83211 | -56.07574 | 1943 ft | 224 kts | 341° |
| 2026-05-08 22:29 | -34.81512 | -56.07482 | 1968 ft | 271 kts | 11° |
| 2026-05-08 22:30 | -34.79902 | -56.06124 | 2482 ft | 294 kts | 51° |
| 2026-05-08 22:30 | -34.79124 | -56.03843 | 3294 ft | 297 kts | 85° |
| 2026-05-08 22:30 | -34.79385 | -56.01386 | 3986 ft | 294 kts | 112° |
| 2026-05-08 22:30 | -34.79932 | -55.98981 | 4692 ft | 299 kts | 95° |
| 2026-05-08 22:31 | -34.79580 | -55.96504 | 5334 ft | 300 kts | 63° |
| 2026-05-08 22:31 | -34.78471 | -55.94370 | 5998 ft | 299 kts | 47° |
| 2026-05-08 22:31 | -34.77087 | -55.92516 | 6607 ft | 300 kts | 41° |
| 2026-05-08 22:31 | -34.75601 | -55.90729 | 7263 ft | 301 kts | 41° |
| 2026-05-08 22:32 | -34.74112 | -55.88920 | 7902 ft | 304 kts | 43° |
| 2026-05-08 22:32 | -34.72649 | -55.87046 | 8536 ft | 307 kts | 45° |
| 2026-05-08 22:32 | -34.71216 | -55.85107 | 9188 ft | 310 kts | 46° |
| 2026-05-08 22:32 | -34.69805 | -55.83122 | 9798 ft | 312 kts | 47° |
| 2026-05-08 22:33 | -34.68370 | -55.81060 | 10040 ft | 329 kts | 48° |
| 2026-05-08 22:33 | -34.66860 | -55.78865 | 10160 ft | 348 kts | 48° |
| 2026-05-08 22:33 | -34.65273 | -55.76547 | 10295 ft | 366 kts | 49° |
| 2026-05-08 22:33 | -34.63619 | -55.74132 | 10555 ft | 376 kts | 49° |
| 2026-05-08 22:34 | -34.61930 | -55.71674 | 11059 ft | 380 kts | 49° |
| 2026-05-08 22:34 | -34.60224 | -55.69203 | 11602 ft | 383 kts | 49° |
| 2026-05-08 22:34 | -34.58508 | -55.66723 | 12157 ft | 385 kts | 48° |
| 2026-05-08 22:34 | -34.56776 | -55.64223 | 12692 ft | 388 kts | 48° |
| 2026-05-08 22:35 | -34.55034 | -55.61711 | 13251 ft | 390 kts | 48° |
| 2026-05-08 22:35 | -34.53282 | -55.59187 | 13728 ft | 393 kts | 48° |
| 2026-05-08 22:35 | -34.51516 | -55.56641 | 14183 ft | 395 kts | 48° |
| 2026-05-08 22:35 | -34.49742 | -55.54084 | 14649 ft | 398 kts | 49° |
| 2026-05-08 22:36 | -34.47954 | -55.51512 | 15085 ft | 400 kts | 48° |
| 2026-05-08 22:36 | -34.46160 | -55.48940 | 15575 ft | 401 kts | 48° |
| 2026-05-08 22:36 | -34.44350 | -55.46348 | 16008 ft | 404 kts | 47° |
| 2026-05-08 22:36 | -34.42533 | -55.43747 | 16424 ft | 406 kts | 48° |
| 2026-05-08 22:37 | -34.40701 | -55.41129 | 16848 ft | 409 kts | 48° |
| 2026-05-08 22:37 | -34.38855 | -55.38492 | 17253 ft | 411 kts | 48° |
| 2026-05-08 22:37 | -34.37001 | -55.35843 | 17654 ft | 414 kts | 47° |
| 2026-05-08 22:37 | -34.35136 | -55.33175 | 18041 ft | 417 kts | 47° |
| 2026-05-08 22:38 | -34.33257 | -55.30487 | 18384 ft | 419 kts | 47° |
| 2026-05-08 22:38 | -34.31370 | -55.27795 | 18731 ft | 421 kts | 47° |
| 2026-05-08 22:38 | -34.29468 | -55.25082 | 19100 ft | 422 kts | 46° |
| 2026-05-08 22:38 | -34.27568 | -55.22370 | 19474 ft | 423 kts | 46° |
| 2026-05-08 22:39 | -34.25659 | -55.19651 | 19832 ft | 425 kts | 46° |
| 2026-05-08 22:39 | -34.23741 | -55.16924 | 20164 ft | 427 kts | 46° |
| 2026-05-08 22:39 | -34.21811 | -55.14183 | 20503 ft | 429 kts | 45° |
| 2026-05-08 22:39 | -34.19878 | -55.11433 | 20830 ft | 431 kts | 45° |
| 2026-05-08 22:40 | -34.17930 | -55.08665 | 21148 ft | 433 kts | 45° |
| 2026-05-08 22:40 | -34.15973 | -55.05893 | 21462 ft | 435 kts | 45° |
| 2026-05-08 22:40 | -34.14002 | -55.03107 | 21779 ft | 437 kts | 45° |
| 2026-05-08 22:40 | -34.12031 | -55.00320 | 22075 ft | 439 kts | 44° |
| 2026-05-08 22:41 | -34.10041 | -54.97511 | 22390 ft | 441 kts | 44° |
| 2026-05-08 22:41 | -34.08047 | -54.94699 | 22678 ft | 443 kts | 44° |
| 2026-05-08 22:41 | -34.06036 | -54.91867 | 22966 ft | 445 kts | 44° |
| 2026-05-08 22:41 | -34.04020 | -54.89031 | 23255 ft | 447 kts | 44° |
| 2026-05-08 22:42 | -34.01992 | -54.86178 | 23509 ft | 448 kts | 44° |
| 2026-05-08 22:42 | -33.99987 | -54.83353 | 23745 ft | 450 kts | 44° |
| 2026-05-08 22:42 | -33.97952 | -54.80484 | 23973 ft | 452 kts | 44° |
| 2026-05-08 22:42 | -33.95906 | -54.77599 | 24210 ft | 453 kts | 45° |
| 2026-05-08 22:43 | -33.93852 | -54.74707 | 24428 ft | 455 kts | 45° |
| 2026-05-08 22:43 | -33.91791 | -54.71813 | 24680 ft | 456 kts | 44° |
| 2026-05-08 22:43 | -33.89727 | -54.68916 | 24928 ft | 457 kts | 45° |
| 2026-05-08 22:43 | -33.87650 | -54.66001 | 25153 ft | 458 kts | 45° |
| 2026-05-08 22:44 | -33.85572 | -54.63088 | 25385 ft | 460 kts | 45° |
| 2026-05-08 22:44 | -33.83481 | -54.60163 | 25604 ft | 461 kts | 45° |
| 2026-05-08 22:44 | -33.81384 | -54.57236 | 25823 ft | 463 kts | 45° |
| 2026-05-08 22:44 | -33.79280 | -54.54299 | 26040 ft | 464 kts | 45° |
| 2026-05-08 22:45 | -33.77173 | -54.51356 | 26268 ft | 465 kts | 45° |
| 2026-05-08 22:45 | -33.75058 | -54.48400 | 26443 ft | 467 kts | 44° |
| 2026-05-08 22:45 | -33.72934 | -54.45434 | 26641 ft | 468 kts | 44° |
| 2026-05-08 22:45 | -33.70807 | -54.42472 | 26835 ft | 469 kts | 44° |
| 2026-05-08 22:46 | -33.68669 | -54.39502 | 27002 ft | 470 kts | 43° |
| 2026-05-08 22:46 | -33.66524 | -54.36526 | 27170 ft | 472 kts | 43° |
| 2026-05-08 22:46 | -33.64372 | -54.33542 | 27356 ft | 474 kts | 43° |
| 2026-05-08 22:46 | -33.62208 | -54.30551 | 27536 ft | 475 kts | 43° |
| 2026-05-08 22:47 | -33.60041 | -54.27555 | 27724 ft | 476 kts | 43° |
| 2026-05-08 22:47 | -33.57871 | -54.24545 | 27877 ft | 478 kts | 43° |
| 2026-05-08 22:47 | -33.55698 | -54.21535 | 28094 ft | 478 kts | 41° |
| 2026-05-08 22:47 | -33.53530 | -54.18527 | 28394 ft | 476 kts | 41° |
| 2026-05-08 22:48 | -33.51366 | -54.15529 | 28651 ft | 475 kts | 41° |
| 2026-05-08 22:48 | -33.49202 | -54.12531 | 28923 ft | 475 kts | 41° |
| 2026-05-08 22:48 | -33.47044 | -54.09548 | 29168 ft | 474 kts | 41° |
| 2026-05-08 22:48 | -33.44881 | -54.06571 | 29416 ft | 473 kts | 41° |
| 2026-05-08 22:49 | -33.42712 | -54.03601 | 29658 ft | 473 kts | 41° |
| 2026-05-08 22:49 | -33.38392 | -53.97672 | 30075 ft | 472 kts | 39° |
| 2026-05-08 22:49 | -33.36242 | -53.94713 | 30296 ft | 471 kts | 39° |
| 2026-05-08 22:50 | -33.34091 | -53.91756 | 30498 ft | 470 kts | 39° |
| 2026-05-08 22:50 | -33.31945 | -53.88812 | 30691 ft | 470 kts | 39° |
| 2026-05-08 22:50 | -33.29795 | -53.85863 | 30801 ft | 469 kts | 39° |
| 2026-05-08 22:50 | -33.27655 | -53.82929 | 30837 ft | 468 kts | 38° |
| 2026-05-08 22:51 | -33.23375 | -53.77075 | 30840 ft | 467 kts | 38° |
| 2026-05-08 22:51 | -33.19131 | -53.71280 | 30840 ft | 466 kts | 37° |
| 2026-05-08 22:52 | -33.14858 | -53.65455 | 30838 ft | 466 kts | 37° |
| 2026-05-08 22:52 | -33.10580 | -53.59636 | 30846 ft | 466 kts | 37° |
| 2026-05-08 22:53 | -33.06276 | -53.53789 | 30845 ft | 466 kts | 37° |
| 2026-05-08 22:53 | -33.02030 | -53.48015 | 30844 ft | 466 kts | 37° |
| 2026-05-08 22:54 | -32.97754 | -53.42213 | 30843 ft | 466 kts | 37° |
| 2026-05-08 22:54 | -32.93470 | -53.36427 | 30843 ft | 466 kts | 37° |
| 2026-05-08 22:55 | -32.89182 | -53.30649 | 30847 ft | 466 kts | 37° |
| 2026-05-08 22:55 | -32.84894 | -53.24875 | 30802 ft | 465 kts | 36° |
| 2026-05-08 22:56 | -32.80615 | -53.19113 | 30837 ft | 465 kts | 36° |
| 2026-05-08 22:56 | -32.76343 | -53.13360 | 30860 ft | 464 kts | 36° |
| 2026-05-08 22:57 | -32.71881 | -53.07981 | 30860 ft | 443 kts | 24° |
| 2026-05-08 22:57 | -32.66817 | -53.04048 | 30863 ft | 434 kts | 19° |
| 2026-05-08 22:58 | -32.61723 | -53.00194 | 30818 ft | 434 kts | 19° |
| 2026-05-08 22:58 | -32.56648 | -52.96340 | 30846 ft | 433 kts | 19° |
| 2026-05-08 22:59 | -32.51586 | -52.92493 | 30859 ft | 432 kts | 18° |
| 2026-05-08 22:59 | -32.46532 | -52.88667 | 30870 ft | 430 kts | 18° |
| 2026-05-08 23:00 | -32.41486 | -52.84857 | 30878 ft | 430 kts | 18° |
| 2026-05-08 23:00 | -32.36448 | -52.81049 | 30879 ft | 429 kts | 18° |
| 2026-05-08 23:01 | -32.31411 | -52.77249 | 30882 ft | 429 kts | 18° |
| 2026-05-08 23:01 | -32.26382 | -52.73461 | 30796 ft | 429 kts | 18° |
| 2026-05-08 23:02 | -32.21329 | -52.69667 | 30873 ft | 431 kts | 18° |
| 2026-05-08 23:02 | -32.16270 | -52.65861 | 30881 ft | 431 kts | 18° |
| 2026-05-08 23:03 | -32.11210 | -52.62061 | 30882 ft | 431 kts | 18° |
| 2026-05-08 23:03 | -32.06158 | -52.58278 | 30882 ft | 430 kts | 18° |
| 2026-05-08 23:04 | -32.01110 | -52.54512 | 30883 ft | 429 kts | 18° |
| 2026-05-08 23:04 | -31.96064 | -52.50745 | 30862 ft | 430 kts | 18° |
| 2026-05-08 23:05 | -31.90992 | -52.46959 | 30893 ft | 432 kts | 18° |
| 2026-05-08 23:05 | -31.85921 | -52.43176 | 30898 ft | 431 kts | 18° |
| 2026-05-08 23:06 | -31.80856 | -52.39402 | 30900 ft | 431 kts | 18° |
| 2026-05-08 23:06 | -31.75794 | -52.35640 | 30898 ft | 430 kts | 18° |
| 2026-05-08 23:07 | -31.70729 | -52.31896 | 30894 ft | 428 kts | 17° |
| 2026-05-08 23:07 | -31.65623 | -52.28339 | 30830 ft | 426 kts | 15° |
| 2026-05-08 23:08 | -31.60515 | -52.24896 | 30881 ft | 426 kts | 15° |
| 2026-05-08 23:08 | -31.55385 | -52.21427 | 30890 ft | 426 kts | 15° |
| 2026-05-08 23:09 | -31.51131 | -52.18510 | 30901 ft | 426 kts | 15° |
| 2026-05-08 23:09 | -31.45990 | -52.14969 | 30905 ft | 426 kts | 15° |
| 2026-05-08 23:10 | -31.40880 | -52.11466 | 30902 ft | 425 kts | 15° |
| 2026-05-08 23:10 | -31.35774 | -52.07985 | 30863 ft | 425 kts | 15° |
| 2026-05-08 23:11 | -31.30660 | -52.04497 | 30835 ft | 426 kts | 15° |
| 2026-05-08 23:11 | -31.25537 | -52.01008 | 30893 ft | 426 kts | 15° |
| 2026-05-08 23:12 | -31.20416 | -51.97528 | 30905 ft | 426 kts | 15° |
| 2026-05-08 23:12 | -31.15298 | -51.94047 | 30911 ft | 425 kts | 15° |
| 2026-05-08 23:13 | -31.10222 | -51.90598 | 30838 ft | 425 kts | 15° |
| 2026-05-08 23:13 | -31.05089 | -51.87126 | 30899 ft | 428 kts | 15° |
| 2026-05-08 23:14 | -30.99939 | -51.83646 | 30907 ft | 428 kts | 15° |
| 2026-05-08 23:14 | -30.94795 | -51.80161 | 30874 ft | 427 kts | 15° |
| 2026-05-08 23:15 | -30.89656 | -51.76681 | 30886 ft | 427 kts | 15° |
| 2026-05-08 23:15 | -30.84521 | -51.73215 | 30894 ft | 427 kts | 15° |
| 2026-05-08 23:16 | -30.79378 | -51.69759 | 30891 ft | 428 kts | 15° |
| 2026-05-08 23:16 | -30.74217 | -51.66291 | 30903 ft | 429 kts | 15° |
| 2026-05-08 23:17 | -30.69052 | -51.62811 | 30904 ft | 428 kts | 15° |
| 2026-05-08 23:17 | -30.63894 | -51.59347 | 30909 ft | 428 kts | 15° |
| 2026-05-08 23:18 | -30.58735 | -51.55896 | 30874 ft | 427 kts | 15° |
| 2026-05-08 23:18 | -30.53619 | -51.52336 | 30886 ft | 440 kts | 22° |
| 2026-05-08 23:19 | -30.48853 | -51.47686 | 30905 ft | 451 kts | 26° |
| 2026-05-08 23:19 | -30.44099 | -51.42938 | 30923 ft | 451 kts | 26° |
| 2026-05-08 23:20 | -30.39351 | -51.38183 | 30929 ft | 451 kts | 26° |
| 2026-05-08 23:20 | -30.34605 | -51.33448 | 30905 ft | 450 kts | 26° |
| 2026-05-08 23:21 | -30.29861 | -51.28730 | 30903 ft | 449 kts | 26° |
| 2026-05-08 23:21 | -30.25122 | -51.24026 | 30913 ft | 449 kts | 26° |
| 2026-05-08 23:22 | -30.20390 | -51.19330 | 30900 ft | 448 kts | 26° |
| 2026-05-08 23:22 | -30.15644 | -51.14635 | 30882 ft | 450 kts | 26° |
| 2026-05-08 23:23 | -30.10909 | -51.09955 | 30883 ft | 451 kts | 26° |
| 2026-05-08 23:23 | -30.06148 | -51.05239 | 30887 ft | 451 kts | 26° |
| 2026-05-08 23:24 | -30.01384 | -51.00537 | 30897 ft | 451 kts | 26° |
| 2026-05-08 23:24 | -29.96618 | -50.95841 | 30900 ft | 451 kts | 26° |
| 2026-05-08 23:25 | -29.91848 | -50.91150 | 30902 ft | 450 kts | 26° |
| 2026-05-08 23:25 | -29.87071 | -50.86491 | 30887 ft | 448 kts | 25° |
| 2026-05-08 23:26 | -29.82181 | -50.82128 | 30895 ft | 442 kts | 22° |
| 2026-05-08 23:26 | -29.77228 | -50.77932 | 30902 ft | 442 kts | 22° |
| 2026-05-08 23:27 | -29.72279 | -50.73709 | 30907 ft | 443 kts | 23° |
| 2026-05-08 23:27 | -29.67355 | -50.69429 | 30906 ft | 444 kts | 23° |
| 2026-05-08 23:28 | -29.62436 | -50.65141 | 30912 ft | 444 kts | 23° |
| 2026-05-08 23:28 | -29.57501 | -50.60866 | 30914 ft | 445 kts | 24° |
| 2026-05-08 23:29 | -29.52587 | -50.56607 | 30881 ft | 445 kts | 24° |
| 2026-05-08 23:29 | -29.47636 | -50.52335 | 30890 ft | 446 kts | 24° |
| 2026-05-08 23:30 | -29.42670 | -50.48063 | 30897 ft | 446 kts | 24° |
| 2026-05-08 23:30 | -29.37701 | -50.43795 | 30912 ft | 447 kts | 24° |
| 2026-05-08 23:31 | -29.32725 | -50.39526 | 30913 ft | 447 kts | 24° |
| 2026-05-08 23:31 | -29.27738 | -50.35253 | 30924 ft | 447 kts | 24° |
| 2026-05-08 23:32 | -29.22754 | -50.30993 | 30928 ft | 447 kts | 24° |
| 2026-05-08 23:32 | -29.17767 | -50.26743 | 30897 ft | 447 kts | 25° |
| 2026-05-08 23:33 | -29.12780 | -50.22490 | 30906 ft | 447 kts | 25° |
| 2026-05-08 23:33 | -29.07792 | -50.18238 | 30897 ft | 447 kts | 25° |
| 2026-05-08 23:34 | -29.02794 | -50.13983 | 30927 ft | 448 kts | 25° |
| 2026-05-08 23:34 | -28.97795 | -50.09726 | 30932 ft | 448 kts | 25° |
| 2026-05-08 23:35 | -28.92802 | -50.05484 | 30926 ft | 447 kts | 25° |
| 2026-05-08 23:35 | -28.87810 | -50.01256 | 30896 ft | 447 kts | 25° |
| 2026-05-08 23:36 | -28.82814 | -49.97023 | 30898 ft | 448 kts | 25° |
| 2026-05-08 23:36 | -28.77813 | -49.92785 | 30911 ft | 449 kts | 26° |
| 2026-05-08 23:37 | -28.72800 | -49.88545 | 30928 ft | 449 kts | 26° |
| 2026-05-08 23:37 | -28.67823 | -49.84342 | 30922 ft | 448 kts | 26° |
| 2026-05-08 23:38 | -28.62813 | -49.80117 | 30941 ft | 448 kts | 26° |
| 2026-05-08 23:38 | -28.57817 | -49.75897 | 30937 ft | 447 kts | 26° |
| 2026-05-08 23:39 | -28.52809 | -49.71685 | 30911 ft | 450 kts | 26° |
| 2026-05-08 23:39 | -28.47767 | -49.67460 | 30920 ft | 450 kts | 26° |
| 2026-05-08 23:40 | -28.42727 | -49.63233 | 30926 ft | 450 kts | 26° |
| 2026-05-08 23:40 | -28.37688 | -49.59007 | 30919 ft | 450 kts | 26° |
| 2026-05-08 23:41 | -28.32647 | -49.54783 | 30929 ft | 450 kts | 26° |
| 2026-05-08 23:41 | -28.27608 | -49.50568 | 30900 ft | 450 kts | 27° |
| 2026-05-08 23:42 | -28.22563 | -49.46358 | 30919 ft | 451 kts | 27° |
| 2026-05-08 23:42 | -28.17485 | -49.42121 | 30932 ft | 454 kts | 27° |
| 2026-05-08 23:43 | -28.12412 | -49.37894 | 30923 ft | 451 kts | 27° |
| 2026-05-08 23:43 | -28.07352 | -49.33683 | 30913 ft | 452 kts | 27° |
| 2026-05-08 23:44 | -28.02314 | -49.29415 | 30892 ft | 453 kts | 28° |
| 2026-05-08 23:44 | -27.97296 | -49.25111 | 30894 ft | 453 kts | 28° |
| 2026-05-08 23:45 | -27.92272 | -49.20822 | 30896 ft | 452 kts | 28° |
| 2026-05-08 23:45 | -27.87237 | -49.16558 | 30879 ft | 452 kts | 27° |
| 2026-05-08 23:46 | -27.82143 | -49.12421 | 30889 ft | 450 kts | 26° |
| 2026-05-08 23:46 | -27.77012 | -49.08365 | 30884 ft | 450 kts | 26° |
| 2026-05-08 23:47 | -27.71924 | -49.04322 | 30880 ft | 450 kts | 27° |
| 2026-05-08 23:47 | -27.66830 | -49.00214 | 30879 ft | 450 kts | 27° |
| 2026-05-08 23:48 | -27.61776 | -48.96039 | 30882 ft | 451 kts | 28° |
| 2026-05-08 23:48 | -27.56728 | -48.91855 | 30876 ft | 450 kts | 28° |
| 2026-05-08 23:49 | -27.51687 | -48.87698 | 30879 ft | 449 kts | 28° |
| 2026-05-08 23:49 | -27.46639 | -48.83562 | 30868 ft | 448 kts | 28° |
| 2026-05-08 23:50 | -27.41586 | -48.79427 | 30868 ft | 449 kts | 28° |
| 2026-05-08 23:50 | -27.36536 | -48.75285 | 30869 ft | 449 kts | 28° |
| 2026-05-08 23:51 | -27.31489 | -48.71143 | 30866 ft | 449 kts | 28° |
| 2026-05-08 23:51 | -27.26437 | -48.67013 | 30842 ft | 448 kts | 28° |
| 2026-05-08 23:52 | -27.21407 | -48.62846 | 30827 ft | 450 kts | 31° |
| 2026-05-08 23:52 | -27.16385 | -48.58619 | 30836 ft | 452 kts | 30° |
| 2026-05-08 23:53 | -27.11298 | -48.54464 | 30843 ft | 452 kts | 30° |
| 2026-05-08 23:53 | -27.06206 | -48.50378 | 30848 ft | 453 kts | 29° |
| 2026-05-08 23:54 | -27.01079 | -48.46266 | 30854 ft | 453 kts | 30° |
| 2026-05-08 23:55 | -26.93396 | -48.40067 | 30832 ft | 455 kts | 29° |
| 2026-05-08 23:55 | -26.88240 | -48.35908 | 30841 ft | 458 kts | 29° |
| 2026-05-08 23:56 | -26.83059 | -48.31746 | 30847 ft | 459 kts | 29° |
| 2026-05-08 23:56 | -26.77855 | -48.27571 | 30859 ft | 460 kts | 29° |
| 2026-05-08 23:57 | -26.73527 | -48.24101 | 30861 ft | 461 kts | 29° |
| 2026-05-08 23:57 | -26.68306 | -48.19916 | 30868 ft | 462 kts | 29° |
| 2026-05-08 23:58 | -26.63096 | -48.15711 | 30871 ft | 463 kts | 29° |
| 2026-05-08 23:58 | -26.57867 | -48.11506 | 30878 ft | 463 kts | 29° |
| 2026-05-08 23:59 | -26.52638 | -48.07303 | 30883 ft | 463 kts | 29° |
| 2026-05-08 23:59 | -26.47405 | -48.03104 | 30891 ft | 463 kts | 29° |
| 2026-05-09 00:00 | -26.42171 | -47.98909 | 30883 ft | 463 kts | 29° |
| 2026-05-09 00:00 | -26.36931 | -47.94725 | 30896 ft | 463 kts | 29° |
| 2026-05-09 00:01 | -26.31695 | -47.90532 | 30888 ft | 464 kts | 29° |
| 2026-05-09 00:01 | -26.26456 | -47.86342 | 30894 ft | 464 kts | 29° |
| 2026-05-09 00:02 | -26.21208 | -47.82166 | 30890 ft | 464 kts | 29° |
| 2026-05-09 00:02 | -26.15959 | -47.77983 | 30888 ft | 464 kts | 29° |
| 2026-05-09 00:03 | -26.10717 | -47.73805 | 30899 ft | 463 kts | 29° |
| 2026-05-09 00:03 | -26.05475 | -47.69628 | 30906 ft | 463 kts | 29° |
| 2026-05-09 00:04 | -26.00232 | -47.65469 | 30886 ft | 463 kts | 30° |
| 2026-05-09 00:04 | -25.94992 | -47.61311 | 30892 ft | 463 kts | 30° |
| 2026-05-09 00:05 | -25.89741 | -47.57154 | 30882 ft | 464 kts | 30° |
| 2026-05-09 00:05 | -25.84477 | -47.52998 | 30888 ft | 465 kts | 30° |
| 2026-05-09 00:06 | -25.79209 | -47.48836 | 30885 ft | 465 kts | 30° |
| 2026-05-09 00:06 | -25.73935 | -47.44667 | 30892 ft | 465 kts | 30° |
| 2026-05-09 00:07 | -25.68650 | -47.40504 | 30905 ft | 466 kts | 30° |
| 2026-05-09 00:07 | -25.63398 | -47.36372 | 30882 ft | 467 kts | 30° |
| 2026-05-09 00:08 | -25.58095 | -47.32199 | 30889 ft | 468 kts | 30° |
| 2026-05-09 00:08 | -25.52788 | -47.28010 | 30886 ft | 469 kts | 30° |
| 2026-05-09 00:09 | -25.47469 | -47.23832 | 30894 ft | 469 kts | 30° |
| 2026-05-09 00:09 | -25.42136 | -47.19662 | 30888 ft | 469 kts | 30° |
| 2026-05-09 00:10 | -25.36809 | -47.15486 | 30884 ft | 470 kts | 30° |
| 2026-05-09 00:10 | -25.31472 | -47.11301 | 30875 ft | 470 kts | 30° |
| 2026-05-09 00:11 | -25.26125 | -47.07120 | 30884 ft | 471 kts | 30° |
| 2026-05-09 00:11 | -25.20775 | -47.02943 | 30888 ft | 471 kts | 30° |
| 2026-05-09 00:12 | -25.15419 | -46.98764 | 30890 ft | 471 kts | 30° |
| 2026-05-09 00:12 | -25.09957 | -46.94802 | 30880 ft | 468 kts | 26° |
| 2026-05-09 00:13 | -25.04335 | -46.91201 | 30877 ft | 467 kts | 24° |
| 2026-05-09 00:13 | -24.98698 | -46.87664 | 30893 ft | 466 kts | 24° |
| 2026-05-09 00:14 | -24.93102 | -46.84040 | 30899 ft | 466 kts | 25° |
| 2026-05-09 00:14 | -24.87529 | -46.80376 | 30900 ft | 466 kts | 25° |
| 2026-05-09 00:15 | -24.81960 | -46.76715 | 30903 ft | 466 kts | 25° |
| 2026-05-09 00:15 | -24.76387 | -46.73077 | 30892 ft | 466 kts | 25° |
| 2026-05-09 00:16 | -24.70817 | -46.69444 | 30898 ft | 465 kts | 24° |
| 2026-05-09 00:16 | -24.65254 | -46.65816 | 30903 ft | 464 kts | 24° |
| 2026-05-09 00:17 | -24.59520 | -46.62749 | 30899 ft | 452 kts | 10° |
| 2026-05-09 00:17 | -24.53419 | -46.61615 | 30884 ft | 443 kts | 1° |
| 2026-05-09 00:18 | -24.47301 | -46.60777 | 30885 ft | 443 kts | 1° |
| 2026-05-09 00:18 | -24.41190 | -46.59926 | 30903 ft | 442 kts | 1° |
| 2026-05-09 00:19 | -24.35093 | -46.59084 | 30905 ft | 441 kts | 1° |
| 2026-05-09 00:19 | -24.29005 | -46.58261 | 30912 ft | 441 kts | 1° |
| 2026-05-09 00:20 | -24.22915 | -46.57437 | 30900 ft | 440 kts | 1° |
| 2026-05-09 00:20 | -24.16841 | -46.56607 | 30907 ft | 440 kts | 1° |
| 2026-05-09 00:21 | -24.10761 | -46.55767 | 30904 ft | 440 kts | 1° |
| 2026-05-09 00:21 | -24.04680 | -46.54940 | 30916 ft | 440 kts | 1° |
| 2026-05-09 00:22 | -23.98600 | -46.54119 | 30925 ft | 441 kts | 1° |
| 2026-05-09 00:22 | -23.92510 | -46.53290 | 30913 ft | 441 kts | 1° |
| 2026-05-09 00:23 | -23.86475 | -46.52061 | 30974 ft | 450 kts | 8° |
| 2026-05-09 00:23 | -23.80436 | -46.50270 | 30996 ft | 450 kts | 9° |
| 2026-05-09 00:24 | -23.74389 | -46.48473 | 31016 ft | 450 kts | 8° |
| 2026-05-09 00:24 | -23.68345 | -46.46688 | 31026 ft | 450 kts | 8° |
| 2026-05-09 00:25 | -23.62300 | -46.44911 | 31028 ft | 450 kts | 8° |
| 2026-05-09 00:25 | -23.56253 | -46.43132 | 31063 ft | 450 kts | 8° |
| 2026-05-09 00:26 | -23.50206 | -46.41366 | 31080 ft | 450 kts | 8° |
| 2026-05-09 00:26 | -23.44160 | -46.39598 | 31064 ft | 450 kts | 8° |
| 2026-05-09 00:27 | -23.38099 | -46.37862 | 31070 ft | 450 kts | 7° |
| 2026-05-09 00:27 | -23.32001 | -46.36392 | 31043 ft | 448 kts | 5° |
| 2026-05-09 00:28 | -23.25891 | -46.35022 | 31034 ft | 448 kts | 5° |
| 2026-05-09 00:28 | -23.19789 | -46.33604 | 30990 ft | 449 kts | 6° |
| 2026-05-09 00:29 | -23.13691 | -46.32137 | 31006 ft | 449 kts | 6° |
| 2026-05-09 00:29 | -23.07595 | -46.30673 | 31022 ft | 449 kts | 6° |
| 2026-05-09 00:30 | -23.01494 | -46.29225 | 31020 ft | 448 kts | 6° |
| 2026-05-09 00:30 | -22.95403 | -46.27790 | 31019 ft | 448 kts | 6° |
| 2026-05-09 00:31 | -22.89307 | -46.26341 | 31026 ft | 448 kts | 6° |
| 2026-05-09 00:31 | -22.83211 | -46.24890 | 31038 ft | 448 kts | 6° |
| 2026-05-09 00:32 | -22.77175 | -46.23350 | 31050 ft | 453 kts | 13° |
| 2026-05-09 00:32 | -22.71561 | -46.20038 | 31050 ft | 468 kts | 30° |
| 2026-05-09 00:33 | -22.66328 | -46.15844 | 31035 ft | 469 kts | 32° |
| 2026-05-09 00:33 | -22.61245 | -46.11376 | 31115 ft | 473 kts | 34° |
| 2026-05-09 00:33 | -22.58726 | -46.09084 | 31292 ft | 474 kts | 34° |
| 2026-05-09 00:34 | -22.56199 | -46.06786 | 31471 ft | 474 kts | 34° |
| 2026-05-09 00:34 | -22.53664 | -46.04503 | 31670 ft | 474 kts | 34° |
| 2026-05-09 00:34 | -22.51117 | -46.02232 | 31895 ft | 474 kts | 34° |
| 2026-05-09 00:34 | -22.48560 | -45.99976 | 32085 ft | 474 kts | 33° |
| 2026-05-09 00:35 | -22.45998 | -45.97731 | 32284 ft | 474 kts | 33° |
| 2026-05-09 00:35 | -22.43429 | -45.95487 | 32474 ft | 475 kts | 33° |
| 2026-05-09 00:35 | -22.40862 | -45.93242 | 32667 ft | 475 kts | 33° |
| 2026-05-09 00:35 | -22.38293 | -45.90987 | 32846 ft | 476 kts | 33° |
| 2026-05-09 00:36 | -22.35723 | -45.88728 | 33008 ft | 477 kts | 34° |
| 2026-05-09 00:36 | -22.30567 | -45.84196 | 33075 ft | 478 kts | 34° |
| 2026-05-09 00:37 | -22.25400 | -45.79663 | 33076 ft | 478 kts | 33° |
| 2026-05-09 00:37 | -22.20212 | -45.75169 | 33079 ft | 479 kts | 33° |
| 2026-05-09 00:38 | -22.15006 | -45.70684 | 33078 ft | 479 kts | 33° |
| 2026-05-09 00:38 | -22.09803 | -45.66202 | 33080 ft | 479 kts | 33° |
| 2026-05-09 00:39 | -22.04594 | -45.61714 | 33075 ft | 479 kts | 34° |
| 2026-05-09 00:39 | -21.99383 | -45.57235 | 33066 ft | 479 kts | 34° |
| 2026-05-09 00:40 | -21.94163 | -45.52745 | 33067 ft | 480 kts | 34° |
| 2026-05-09 00:40 | -21.88939 | -45.48251 | 33070 ft | 481 kts | 34° |
| 2026-05-09 00:41 | -21.81105 | -45.41507 | 33078 ft | 481 kts | 34° |
| 2026-05-09 00:41 | -21.76752 | -45.37781 | 33078 ft | 481 kts | 34° |
| 2026-05-09 00:42 | -21.70655 | -45.32574 | 33070 ft | 482 kts | 34° |
| 2026-05-09 00:42 | -21.65410 | -45.28085 | 33083 ft | 482 kts | 34° |
| 2026-05-09 00:43 | -21.60169 | -45.23596 | 33085 ft | 482 kts | 34° |
| 2026-05-09 00:43 | -21.55804 | -45.19868 | 33094 ft | 482 kts | 34° |
| 2026-05-09 00:44 | -21.50550 | -45.15385 | 33087 ft | 482 kts | 34° |
| 2026-05-09 00:44 | -21.45295 | -45.10901 | 33092 ft | 483 kts | 34° |
| 2026-05-09 00:45 | -21.40035 | -45.06418 | 33103 ft | 483 kts | 34° |
| 2026-05-09 00:45 | -21.34773 | -45.01936 | 33093 ft | 483 kts | 34° |
| 2026-05-09 00:46 | -21.29507 | -44.97463 | 33100 ft | 483 kts | 34° |
| 2026-05-09 00:46 | -21.24240 | -44.92982 | 33103 ft | 483 kts | 34° |
| 2026-05-09 00:47 | -21.18962 | -44.88509 | 33106 ft | 483 kts | 34° |
| 2026-05-09 00:47 | -21.13691 | -44.84040 | 33104 ft | 483 kts | 35° |
| 2026-05-09 00:48 | -21.08417 | -44.79571 | 33107 ft | 483 kts | 35° |
| 2026-05-09 00:48 | -21.03118 | -44.75128 | 33109 ft | 483 kts | 33° |
| 2026-05-09 00:49 | -20.97668 | -44.70928 | 33115 ft | 482 kts | 31° |
| 2026-05-09 00:49 | -20.92192 | -44.66866 | 33122 ft | 482 kts | 31° |
| 2026-05-09 00:50 | -20.86733 | -44.62764 | 33123 ft | 482 kts | 32° |
| 2026-05-09 00:50 | -20.81274 | -44.58592 | 33125 ft | 483 kts | 32° |
| 2026-05-09 00:51 | -20.75816 | -44.54415 | 33125 ft | 482 kts | 32° |
| 2026-05-09 00:51 | -20.70359 | -44.50242 | 33127 ft | 482 kts | 32° |
| 2026-05-09 00:52 | -20.64893 | -44.46087 | 33127 ft | 482 kts | 32° |
| 2026-05-09 00:52 | -20.59414 | -44.41936 | 33123 ft | 482 kts | 32° |
| 2026-05-09 00:53 | -20.53951 | -44.37781 | 33125 ft | 482 kts | 32° |
| 2026-05-09 00:53 | -20.48484 | -44.33631 | 33125 ft | 482 kts | 32° |
| 2026-05-09 00:54 | -20.43017 | -44.29484 | 33131 ft | 482 kts | 33° |
| 2026-05-09 00:54 | -20.37649 | -44.25272 | 33125 ft | 483 kts | 34° |
| 2026-05-09 00:55 | -20.32286 | -44.20966 | 33133 ft | 483 kts | 34° |
| 2026-05-09 00:55 | -20.26913 | -44.16675 | 33132 ft | 482 kts | 34° |
| 2026-05-09 00:56 | -20.21523 | -44.12415 | 33133 ft | 482 kts | 34° |
| 2026-05-09 00:56 | -20.16126 | -44.08151 | 33128 ft | 483 kts | 34° |
| 2026-05-09 00:57 | -20.10736 | -44.03889 | 33143 ft | 483 kts | 34° |
| 2026-05-09 00:57 | -20.05336 | -43.99629 | 33148 ft | 483 kts | 34° |
| 2026-05-09 00:58 | -19.99971 | -43.95404 | 33149 ft | 483 kts | 34° |
| 2026-05-09 00:58 | -19.94571 | -43.91148 | 33157 ft | 483 kts | 34° |
| 2026-05-09 00:59 | -19.89163 | -43.86904 | 33161 ft | 483 kts | 34° |
| 2026-05-09 00:59 | -19.83736 | -43.82677 | 33161 ft | 483 kts | 33° |
| 2026-05-09 01:00 | -19.78204 | -43.78631 | 33147 ft | 483 kts | 31° |
| 2026-05-09 01:00 | -19.72611 | -43.74676 | 33145 ft | 483 kts | 31° |
| 2026-05-09 01:01 | -19.67038 | -43.70690 | 33154 ft | 483 kts | 32° |
| 2026-05-09 01:01 | -19.61488 | -43.66664 | 33157 ft | 483 kts | 32° |
| 2026-05-09 01:02 | -19.55938 | -43.62635 | 33144 ft | 483 kts | 32° |
| 2026-05-09 01:02 | -19.50382 | -43.58617 | 33137 ft | 483 kts | 32° |
| 2026-05-09 01:03 | -19.44823 | -43.54608 | 33146 ft | 483 kts | 32° |
| 2026-05-09 01:03 | -19.39261 | -43.50609 | 33144 ft | 483 kts | 32° |
| 2026-05-09 01:04 | -19.33700 | -43.46612 | 33133 ft | 483 kts | 32° |
| 2026-05-09 01:04 | -19.28171 | -43.42558 | 33136 ft | 484 kts | 34° |
| 2026-05-09 01:05 | -19.22793 | -43.38273 | 33124 ft | 484 kts | 36° |
| 2026-05-09 01:06 | -19.14785 | -43.31761 | 33132 ft | 484 kts | 36° |
| 2026-05-09 01:06 | -19.09400 | -43.27493 | 33134 ft | 484 kts | 35° |
| 2026-05-09 01:07 | -19.04010 | -43.23237 | 33131 ft | 484 kts | 35° |
| 2026-05-09 01:07 | -18.98621 | -43.18973 | 33130 ft | 484 kts | 35° |
| 2026-05-09 01:08 | -18.93272 | -43.14743 | 33133 ft | 484 kts | 35° |
| 2026-05-09 01:08 | -18.87883 | -43.10490 | 33127 ft | 484 kts | 35° |
| 2026-05-09 01:09 | -18.82491 | -43.06230 | 33132 ft | 484 kts | 35° |
| 2026-05-09 01:09 | -18.77108 | -43.01972 | 33127 ft | 484 kts | 36° |
| 2026-05-09 01:10 | -18.71726 | -42.97716 | 33130 ft | 483 kts | 35° |
| 2026-05-09 01:10 | -18.66342 | -42.93461 | 33129 ft | 483 kts | 35° |
| 2026-05-09 01:11 | -18.60951 | -42.89219 | 33130 ft | 483 kts | 35° |
| 2026-05-09 01:11 | -18.55562 | -42.84979 | 33124 ft | 483 kts | 35° |
| 2026-05-09 01:12 | -18.50179 | -42.80738 | 33134 ft | 483 kts | 36° |
| 2026-05-09 01:12 | -18.44786 | -42.76501 | 33125 ft | 483 kts | 35° |
| 2026-05-09 01:13 | -18.39427 | -42.72301 | 33129 ft | 483 kts | 36° |
| 2026-05-09 01:13 | -18.34042 | -42.68074 | 33120 ft | 483 kts | 36° |
| 2026-05-09 01:14 | -18.28652 | -42.63846 | 33125 ft | 483 kts | 36° |
| 2026-05-09 01:14 | -18.23262 | -42.59624 | 33120 ft | 483 kts | 36° |
| 2026-05-09 01:15 | -18.17876 | -42.55403 | 33116 ft | 483 kts | 36° |
| 2026-05-09 01:15 | -18.12487 | -42.51188 | 33121 ft | 482 kts | 36° |
| 2026-05-09 01:16 | -18.07099 | -42.46982 | 33128 ft | 482 kts | 36° |
| 2026-05-09 01:16 | -18.01714 | -42.42785 | 33126 ft | 482 kts | 36° |
| 2026-05-09 01:17 | -17.93640 | -42.36481 | 33129 ft | 482 kts | 36° |
| 2026-05-09 01:17 | -17.88265 | -42.32286 | 33135 ft | 481 kts | 36° |
| 2026-05-09 01:18 | -17.82881 | -42.28097 | 33135 ft | 481 kts | 36° |
| 2026-05-09 01:18 | -17.77501 | -42.23917 | 33134 ft | 481 kts | 36° |
| 2026-05-09 01:19 | -17.72120 | -42.19735 | 33138 ft | 481 kts | 36° |
| 2026-05-09 01:19 | -17.66778 | -42.15581 | 33143 ft | 481 kts | 36° |
| 2026-05-09 01:20 | -17.61404 | -42.11405 | 33143 ft | 480 kts | 36° |
| 2026-05-09 01:20 | -17.56033 | -42.07244 | 33144 ft | 480 kts | 36° |
| 2026-05-09 01:21 | -17.50660 | -42.03078 | 33144 ft | 480 kts | 36° |
| 2026-05-09 01:21 | -17.45286 | -41.98923 | 33145 ft | 480 kts | 36° |
| 2026-05-09 01:22 | -17.39920 | -41.94762 | 33143 ft | 480 kts | 36° |
| 2026-05-09 01:22 | -17.34557 | -41.90599 | 33141 ft | 480 kts | 36° |
| 2026-05-09 01:23 | -17.29199 | -41.86446 | 33137 ft | 479 kts | 36° |
| 2026-05-09 01:23 | -17.23835 | -41.82302 | 33140 ft | 479 kts | 36° |
| 2026-05-09 01:24 | -17.18475 | -41.78161 | 33134 ft | 479 kts | 36° |
| 2026-05-09 01:24 | -17.13110 | -41.74021 | 33133 ft | 479 kts | 36° |
| 2026-05-09 01:25 | -17.07753 | -41.69886 | 33136 ft | 479 kts | 36° |
| 2026-05-09 01:25 | -17.02400 | -41.65752 | 33136 ft | 478 kts | 36° |
| 2026-05-09 01:26 | -16.97039 | -41.61630 | 33137 ft | 478 kts | 36° |
| 2026-05-09 01:26 | -16.91686 | -41.57511 | 33136 ft | 478 kts | 36° |
| 2026-05-09 01:27 | -16.86371 | -41.53419 | 33130 ft | 478 kts | 36° |
| 2026-05-09 01:27 | -16.81017 | -41.49307 | 33136 ft | 478 kts | 36° |
| 2026-05-09 01:28 | -16.75666 | -41.45196 | 33136 ft | 477 kts | 36° |
| 2026-05-09 01:28 | -16.70314 | -41.41097 | 33138 ft | 477 kts | 36° |
| 2026-05-09 01:29 | -16.64973 | -41.36985 | 33128 ft | 477 kts | 36° |
| 2026-05-09 01:29 | -16.59654 | -41.32840 | 33126 ft | 477 kts | 36° |
| 2026-05-09 01:30 | -16.54340 | -41.28704 | 33133 ft | 477 kts | 36° |
| 2026-05-09 01:30 | -16.49023 | -41.24577 | 33133 ft | 476 kts | 36° |
| 2026-05-09 01:31 | -16.43707 | -41.20461 | 33126 ft | 476 kts | 36° |
| 2026-05-09 01:31 | -16.38383 | -41.16352 | 33125 ft | 476 kts | 36° |
| 2026-05-09 01:32 | -16.33964 | -41.12937 | 33132 ft | 476 kts | 36° |
| 2026-05-09 01:32 | -16.28651 | -41.08816 | 33132 ft | 476 kts | 36° |
| 2026-05-09 01:33 | -16.23331 | -41.04714 | 33124 ft | 476 kts | 36° |
| 2026-05-09 01:33 | -16.17146 | -40.99945 | 33124 ft | 476 kts | 36° |
| 2026-05-09 01:34 | -16.12690 | -40.96510 | 33125 ft | 476 kts | 36° |
| 2026-05-09 01:34 | -16.07369 | -40.92409 | 33125 ft | 476 kts | 36° |
| 2026-05-09 01:35 | -16.02081 | -40.88341 | 33122 ft | 476 kts | 36° |
| 2026-05-09 01:35 | -15.96762 | -40.84253 | 33121 ft | 476 kts | 36° |
| 2026-05-09 01:36 | -15.91438 | -40.80159 | 33123 ft | 476 kts | 36° |
| 2026-05-09 01:36 | -15.86117 | -40.76067 | 33126 ft | 476 kts | 36° |
| 2026-05-09 01:37 | -15.80792 | -40.71978 | 33127 ft | 476 kts | 36° |
| 2026-05-09 01:37 | -15.75464 | -40.67892 | 33128 ft | 476 kts | 36° |
| 2026-05-09 01:38 | -15.70143 | -40.63808 | 33126 ft | 476 kts | 36° |
| 2026-05-09 01:38 | -15.64821 | -40.59731 | 33131 ft | 476 kts | 36° |
| 2026-05-09 01:39 | -15.59496 | -40.55655 | 33121 ft | 476 kts | 36° |
| 2026-05-09 01:39 | -15.54171 | -40.51581 | 33119 ft | 476 kts | 36° |
| 2026-05-09 01:40 | -15.48849 | -40.47505 | 33120 ft | 476 kts | 36° |
| 2026-05-09 01:40 | -15.43518 | -40.43425 | 33121 ft | 476 kts | 36° |
| 2026-05-09 01:41 | -15.38196 | -40.39361 | 33125 ft | 475 kts | 36° |
| 2026-05-09 01:41 | -15.32899 | -40.35322 | 33113 ft | 475 kts | 36° |
| 2026-05-09 01:42 | -15.27573 | -40.31258 | 33114 ft | 475 kts | 36° |
| 2026-05-09 01:42 | -15.22251 | -40.27196 | 33116 ft | 475 kts | 36° |
| 2026-05-09 01:43 | -15.16925 | -40.23137 | 33121 ft | 475 kts | 36° |
| 2026-05-09 01:43 | -15.11598 | -40.19080 | 33115 ft | 475 kts | 36° |
| 2026-05-09 01:44 | -15.06266 | -40.15032 | 33111 ft | 475 kts | 36° |
| 2026-05-09 01:44 | -15.00935 | -40.10987 | 33107 ft | 475 kts | 36° |
| 2026-05-09 01:45 | -14.95604 | -40.06940 | 33127 ft | 475 kts | 36° |
| 2026-05-09 01:45 | -14.90273 | -40.02892 | 33109 ft | 475 kts | 36° |
| 2026-05-09 01:46 | -14.84942 | -39.98839 | 33104 ft | 476 kts | 36° |
| 2026-05-09 01:46 | -14.79648 | -39.94820 | 33108 ft | 476 kts | 36° |
| 2026-05-09 01:47 | -14.74314 | -39.90770 | 33106 ft | 476 kts | 36° |
| 2026-05-09 01:47 | -14.68969 | -39.86728 | 33109 ft | 476 kts | 36° |
| 2026-05-09 01:48 | -14.63629 | -39.82681 | 33097 ft | 476 kts | 36° |
| 2026-05-09 01:48 | -14.58285 | -39.78635 | 33103 ft | 476 kts | 36° |
| 2026-05-09 01:49 | -14.52933 | -39.74599 | 33097 ft | 477 kts | 36° |
| 2026-05-09 01:49 | -14.47507 | -39.70506 | 33093 ft | 477 kts | 36° |
| 2026-05-09 01:50 | -14.42150 | -39.66459 | 33096 ft | 477 kts | 36° |
| 2026-05-09 01:50 | -14.36792 | -39.62417 | 33095 ft | 477 kts | 36° |
| 2026-05-09 01:51 | -14.31436 | -39.58384 | 33103 ft | 477 kts | 36° |
| 2026-05-09 01:51 | -14.26075 | -39.54351 | 33089 ft | 477 kts | 36° |
| 2026-05-09 01:52 | -14.20699 | -39.50322 | 33089 ft | 478 kts | 36° |
| 2026-05-09 01:52 | -14.15320 | -39.46292 | 33087 ft | 478 kts | 36° |
| 2026-05-09 01:53 | -14.09942 | -39.42268 | 33095 ft | 478 kts | 36° |
| 2026-05-09 01:53 | -14.04568 | -39.38245 | 33092 ft | 477 kts | 36° |
| 2026-05-09 01:54 | -13.99230 | -39.34260 | 33097 ft | 477 kts | 36° |
| 2026-05-09 01:54 | -13.93852 | -39.30238 | 33072 ft | 478 kts | 36° |
| 2026-05-09 01:55 | -13.88468 | -39.26225 | 33072 ft | 478 kts | 36° |
| 2026-05-09 01:55 | -13.83086 | -39.22214 | 33084 ft | 478 kts | 36° |
| 2026-05-09 01:56 | -13.77701 | -39.18194 | 33081 ft | 478 kts | 36° |
| 2026-05-09 01:56 | -13.72320 | -39.14181 | 33080 ft | 478 kts | 36° |
| 2026-05-09 01:57 | -13.66940 | -39.10169 | 33063 ft | 478 kts | 36° |
| 2026-05-09 01:57 | -13.61555 | -39.06152 | 33077 ft | 478 kts | 36° |
| 2026-05-09 01:58 | -13.56207 | -39.02172 | 33072 ft | 478 kts | 36° |
| 2026-05-09 01:58 | -13.50811 | -38.98182 | 33067 ft | 478 kts | 35° |
| 2026-05-09 01:59 | -13.45414 | -38.94194 | 33068 ft | 478 kts | 36° |
| 2026-05-09 01:59 | -13.40020 | -38.90213 | 33058 ft | 477 kts | 35° |
| 2026-05-09 02:00 | -13.34631 | -38.86232 | 33064 ft | 477 kts | 35° |
| 2026-05-09 02:00 | -13.29248 | -38.82251 | 33067 ft | 477 kts | 35° |
| 2026-05-09 02:01 | -13.23864 | -38.78269 | 33067 ft | 476 kts | 35° |
| 2026-05-09 02:01 | -13.18485 | -38.74298 | 33069 ft | 476 kts | 35° |
| 2026-05-09 02:02 | -13.13109 | -38.70325 | 33067 ft | 476 kts | 35° |
| 2026-05-09 02:02 | -13.07730 | -38.66369 | 33075 ft | 475 kts | 35° |
| 2026-05-09 02:03 | -13.02355 | -38.62418 | 33065 ft | 475 kts | 35° |
| 2026-05-09 02:03 | -12.96985 | -38.58460 | 33065 ft | 476 kts | 35° |
| 2026-05-09 02:04 | -12.91644 | -38.54526 | 33054 ft | 476 kts | 35° |
| 2026-05-09 02:04 | -12.86270 | -38.50573 | 33056 ft | 476 kts | 35° |
| 2026-05-09 02:05 | -12.80891 | -38.46627 | 33064 ft | 475 kts | 35° |
| 2026-05-09 02:05 | -12.75517 | -38.42679 | 33047 ft | 475 kts | 35° |
| 2026-05-09 02:06 | -12.70149 | -38.38723 | 33053 ft | 475 kts | 35° |
| 2026-05-09 02:07 | -12.62078 | -38.32803 | 33059 ft | 475 kts | 34° |
| 2026-05-09 02:07 | -12.56705 | -38.28861 | 33059 ft | 475 kts | 34° |
| 2026-05-09 02:08 | -12.51325 | -38.24928 | 33065 ft | 475 kts | 34° |
| 2026-05-09 02:08 | -12.45985 | -38.21022 | 33064 ft | 475 kts | 34° |
| 2026-05-09 02:09 | -12.40613 | -38.17086 | 33062 ft | 475 kts | 34° |
| 2026-05-09 02:09 | -12.35249 | -38.13149 | 33067 ft | 475 kts | 34° |
| 2026-05-09 02:10 | -12.29871 | -38.09214 | 33062 ft | 474 kts | 34° |
| 2026-05-09 02:10 | -12.24499 | -38.05294 | 33061 ft | 474 kts | 34° |
| 2026-05-09 02:11 | -12.19130 | -38.01373 | 33064 ft | 474 kts | 34° |
| 2026-05-09 02:11 | -12.13759 | -37.97448 | 33057 ft | 474 kts | 34° |
| 2026-05-09 02:12 | -12.08384 | -37.93532 | 33059 ft | 474 kts | 34° |
| 2026-05-09 02:12 | -12.03009 | -37.89614 | 33053 ft | 474 kts | 34° |
| 2026-05-09 02:13 | -11.97635 | -37.85700 | 33055 ft | 474 kts | 34° |
| 2026-05-09 02:13 | -11.92259 | -37.81782 | 33056 ft | 475 kts | 34° |
| 2026-05-09 02:14 | -11.86917 | -37.77895 | 33051 ft | 474 kts | 33° |
| 2026-05-09 02:14 | -11.81536 | -37.74000 | 33053 ft | 474 kts | 33° |
| 2026-05-09 02:15 | -11.76162 | -37.70110 | 33063 ft | 474 kts | 33° |
| 2026-05-09 02:15 | -11.70794 | -37.66214 | 33056 ft | 473 kts | 33° |
| 2026-05-09 02:16 | -11.65420 | -37.62324 | 33055 ft | 473 kts | 33° |
| 2026-05-09 02:16 | -11.60051 | -37.58440 | 33053 ft | 473 kts | 33° |
| 2026-05-09 02:17 | -11.54684 | -37.54559 | 33054 ft | 473 kts | 33° |
| 2026-05-09 02:17 | -11.49319 | -37.50680 | 33048 ft | 473 kts | 33° |
| 2026-05-09 02:18 | -11.43945 | -37.46804 | 33053 ft | 473 kts | 33° |
| 2026-05-09 02:18 | -11.38578 | -37.42938 | 33052 ft | 472 kts | 33° |
| 2026-05-09 02:19 | -11.33221 | -37.39063 | 33047 ft | 472 kts | 33° |
| 2026-05-09 02:19 | -11.27870 | -37.35193 | 33049 ft | 471 kts | 33° |
| 2026-05-09 02:20 | -11.22523 | -37.31333 | 33046 ft | 471 kts | 33° |
| 2026-05-09 02:20 | -11.17168 | -37.27478 | 33045 ft | 471 kts | 33° |
| 2026-05-09 02:21 | -11.11821 | -37.23635 | 33043 ft | 471 kts | 33° |
| 2026-05-09 02:21 | -11.07375 | -37.20437 | 33045 ft | 470 kts | 33° |
| 2026-05-09 02:22 | -11.02040 | -37.16593 | 33048 ft | 470 kts | 33° |
| 2026-05-09 02:22 | -10.95845 | -37.12138 | 33046 ft | 469 kts | 33° |
| 2026-05-09 02:23 | -10.91378 | -37.08935 | 33041 ft | 469 kts | 33° |
| 2026-05-09 02:23 | -10.86045 | -37.05114 | 33042 ft | 469 kts | 33° |
| 2026-05-09 02:24 | -10.80709 | -37.01299 | 33037 ft | 469 kts | 33° |
| 2026-05-09 02:24 | -10.75413 | -36.97513 | 33040 ft | 469 kts | 33° |
| 2026-05-09 02:25 | -10.70086 | -36.93692 | 33041 ft | 468 kts | 33° |
| 2026-05-09 02:25 | -10.64763 | -36.89877 | 33042 ft | 468 kts | 33° |
| 2026-05-09 02:26 | -10.59434 | -36.86070 | 33044 ft | 468 kts | 33° |
| 2026-05-09 02:26 | -10.54109 | -36.82273 | 33033 ft | 468 kts | 32° |
| 2026-05-09 02:27 | -10.48771 | -36.78467 | 33032 ft | 469 kts | 33° |
| 2026-05-09 02:27 | -10.43432 | -36.74657 | 33034 ft | 469 kts | 32° |
| 2026-05-09 02:28 | -10.38096 | -36.70845 | 33041 ft | 469 kts | 32° |
| 2026-05-09 02:28 | -10.32758 | -36.67037 | 33043 ft | 469 kts | 32° |
| 2026-05-09 02:29 | -10.27418 | -36.63234 | 33035 ft | 469 kts | 32° |
| 2026-05-09 02:29 | -10.22085 | -36.59429 | 33039 ft | 469 kts | 32° |
| 2026-05-09 02:30 | -10.16748 | -36.55618 | 33042 ft | 469 kts | 32° |
| 2026-05-09 02:30 | -10.11410 | -36.51819 | 33041 ft | 468 kts | 32° |
| 2026-05-09 02:31 | -10.06065 | -36.48039 | 33047 ft | 468 kts | 32° |
| 2026-05-09 02:31 | -10.00718 | -36.44259 | 33045 ft | 468 kts | 32° |
| 2026-05-09 02:32 | -9.95372 | -36.40478 | 33045 ft | 468 kts | 32° |
| 2026-05-09 02:32 | -9.90074 | -36.36722 | 33047 ft | 468 kts | 32° |
| 2026-05-09 02:33 | -9.84733 | -36.32941 | 33050 ft | 468 kts | 32° |
| 2026-05-09 02:33 | -9.79398 | -36.29164 | 33053 ft | 468 kts | 32° |
| 2026-05-09 02:34 | -9.74060 | -36.25392 | 33050 ft | 467 kts | 32° |
| 2026-05-09 02:34 | -9.68729 | -36.21627 | 33057 ft | 467 kts | 32° |
| 2026-05-09 02:35 | -9.63408 | -36.17863 | 33064 ft | 466 kts | 32° |
| 2026-05-09 02:35 | -9.58092 | -36.14106 | 33059 ft | 466 kts | 32° |
| 2026-05-09 02:36 | -9.52779 | -36.10362 | 33054 ft | 465 kts | 32° |
| 2026-05-09 02:36 | -9.47468 | -36.06616 | 33051 ft | 465 kts | 32° |
| 2026-05-09 02:37 | -9.42159 | -36.02864 | 33052 ft | 465 kts | 32° |
| 2026-05-09 02:37 | -9.36850 | -35.99121 | 33057 ft | 465 kts | 32° |
| 2026-05-09 02:38 | -9.31539 | -35.95374 | 33050 ft | 465 kts | 32° |
| 2026-05-09 02:38 | -9.26274 | -35.91657 | 33047 ft | 465 kts | 32° |
| 2026-05-09 02:39 | -9.20970 | -35.87925 | 33048 ft | 464 kts | 32° |
| 2026-05-09 02:39 | -9.15664 | -35.84195 | 33047 ft | 465 kts | 32° |
| 2026-05-09 02:40 | -9.10355 | -35.80461 | 33039 ft | 465 kts | 32° |
| 2026-05-09 02:40 | -9.05038 | -35.76718 | 33031 ft | 466 kts | 32° |
| 2026-05-09 02:41 | -8.99934 | -35.72649 | 33034 ft | 470 kts | 40° |
| 2026-05-09 02:41 | -8.95180 | -35.68100 | 32787 ft | 470 kts | 40° |
| 2026-05-09 02:41 | -8.92778 | -35.65808 | 31677 ft | 479 kts | 40° |
| 2026-05-09 02:42 | -8.90348 | -35.63495 | 30865 ft | 481 kts | 41° |
| 2026-05-09 02:42 | -8.87915 | -35.61180 | 30204 ft | 479 kts | 41° |
| 2026-05-09 02:42 | -8.85498 | -35.58879 | 29540 ft | 475 kts | 41° |
| 2026-05-09 02:42 | -8.83102 | -35.56598 | 28918 ft | 470 kts | 41° |
| 2026-05-09 02:43 | -8.80733 | -35.54342 | 28294 ft | 465 kts | 41° |
| 2026-05-09 02:43 | -8.78390 | -35.52108 | 27688 ft | 459 kts | 41° |
| 2026-05-09 02:43 | -8.76125 | -35.49947 | 26771 ft | 450 kts | 41° |
| 2026-05-09 02:43 | -8.73868 | -35.47791 | 25846 ft | 443 kts | 41° |
| 2026-05-09 02:44 | -8.71645 | -35.45667 | 24954 ft | 436 kts | 41° |
| 2026-05-09 02:44 | -8.69456 | -35.43580 | 24086 ft | 429 kts | 41° |
| 2026-05-09 02:44 | -8.67302 | -35.41534 | 23166 ft | 422 kts | 41° |
| 2026-05-09 02:44 | -8.65174 | -35.39520 | 22191 ft | 416 kts | 41° |
| 2026-05-09 02:45 | -8.63081 | -35.37543 | 21311 ft | 409 kts | 42° |
| 2026-05-09 02:45 | -8.61046 | -35.35620 | 20864 ft | 392 kts | 42° |
| 2026-05-09 02:45 | -8.59102 | -35.33775 | 20424 ft | 377 kts | 43° |
| 2026-05-09 02:45 | -8.57192 | -35.31962 | 19971 ft | 376 kts | 43° |
| 2026-05-09 02:46 | -8.55292 | -35.30159 | 19529 ft | 374 kts | 43° |
| 2026-05-09 02:46 | -8.53396 | -35.28361 | 19070 ft | 373 kts | 43° |
| 2026-05-09 02:46 | -8.51504 | -35.26566 | 18611 ft | 373 kts | 43° |
| 2026-05-09 02:46 | -8.49617 | -35.24776 | 18129 ft | 372 kts | 44° |
| 2026-05-09 02:47 | -8.47730 | -35.22987 | 17627 ft | 371 kts | 44° |
| 2026-05-09 02:47 | -8.45859 | -35.21214 | 17187 ft | 368 kts | 44° |
| 2026-05-09 02:47 | -8.43996 | -35.19446 | 16738 ft | 366 kts | 44° |
| 2026-05-09 02:47 | -8.42141 | -35.17686 | 16289 ft | 364 kts | 44° |
| 2026-05-09 02:48 | -8.40321 | -35.15963 | 15854 ft | 363 kts | 44° |
| 2026-05-09 02:48 | -8.38457 | -35.14205 | 15400 ft | 361 kts | 44° |
| 2026-05-09 02:48 | -8.36647 | -35.12498 | 14962 ft | 360 kts | 45° |
| 2026-05-09 02:48 | -8.34824 | -35.10778 | 14525 ft | 358 kts | 45° |
| 2026-05-09 02:49 | -8.33004 | -35.09061 | 14070 ft | 357 kts | 45° |
| 2026-05-09 02:49 | -8.31192 | -35.07348 | 13599 ft | 356 kts | 45° |
| 2026-05-09 02:49 | -8.29369 | -35.05673 | 13128 ft | 354 kts | 40° |
| 2026-05-09 02:49 | -8.27279 | -35.04362 | 12670 ft | 354 kts | 27° |
| 2026-05-09 02:50 | -8.24942 | -35.03569 | 12198 ft | 355 kts | 16° |
| 2026-05-09 02:50 | -8.22545 | -35.03007 | 11729 ft | 353 kts | 15° |
| 2026-05-09 02:50 | -8.20155 | -35.02449 | 11249 ft | 351 kts | 15° |
| 2026-05-09 02:50 | -8.17735 | -35.02116 | 10778 ft | 353 kts | 3° |
| 2026-05-09 02:51 | -8.15292 | -35.02370 | 10352 ft | 354 kts | 348° |
| 2026-05-09 02:51 | -8.12973 | -35.03080 | 10230 ft | 343 kts | 345° |
| 2026-05-09 02:51 | -8.10735 | -35.03787 | 10110 ft | 330 kts | 345° |
| 2026-05-09 02:51 | -8.08603 | -35.04453 | 9929 ft | 314 kts | 345° |
| 2026-05-09 02:52 | -8.06538 | -35.05097 | 9721 ft | 308 kts | 344° |
| 2026-05-09 02:52 | -8.04625 | -35.06052 | 9366 ft | 309 kts | 324° |
| 2026-05-09 02:52 | -8.03166 | -35.07628 | 8901 ft | 308 kts | 301° |
| 2026-05-09 02:52 | -8.02408 | -35.09633 | 8256 ft | 307 kts | 277° |
| 2026-05-09 02:53 | -8.02466 | -35.11757 | 7660 ft | 302 kts | 254° |
| 2026-05-09 02:53 | -8.03273 | -35.13672 | 7053 ft | 295 kts | 232° |
| 2026-05-09 02:53 | -8.04656 | -35.15139 | 6460 ft | 286 kts | 211° |
| 2026-05-09 02:53 | -8.06400 | -35.16002 | 5851 ft | 276 kts | 191° |
| 2026-05-09 02:54 | -8.08246 | -35.16210 | 5242 ft | 267 kts | 172° |
| 2026-05-09 02:54 | -8.10028 | -35.15801 | 4702 ft | 261 kts | 154° |
| 2026-05-09 02:54 | -8.11545 | -35.14860 | 4462 ft | 254 kts | 137° |
| 2026-05-09 02:54 | -8.12613 | -35.13470 | 4257 ft | 252 kts | 112° |
| 2026-05-09 02:55 | -8.12841 | -35.11733 | 4056 ft | 255 kts | 81° |
| 2026-05-09 02:55 | -8.12039 | -35.10140 | 3869 ft | 262 kts | 47° |
| 2026-05-09 02:55 | -8.10433 | -35.09245 | 3721 ft | 271 kts | 19° |
| 2026-05-09 02:55 | -8.08603 | -35.08734 | 3548 ft | 273 kts | 20° |
| 2026-05-09 02:56 | -8.06820 | -35.08097 | 3371 ft | 271 kts | 26° |
| 2026-05-09 02:56 | -8.05135 | -35.07262 | 3191 ft | 269 kts | 33° |
| 2026-05-09 02:56 | -8.03585 | -35.06231 | 3059 ft | 266 kts | 40° |
| 2026-05-09 02:56 | -8.02182 | -35.05036 | 3015 ft | 263 kts | 47° |
| 2026-05-09 02:57 | -8.00928 | -35.03701 | 3008 ft | 256 kts | 53° |
| 2026-05-09 02:57 | -7.99882 | -35.02333 | 3012 ft | 239 kts | 59° |
| 2026-05-09 02:57 | -7.99016 | -35.00940 | 3015 ft | 228 kts | 65° |
| 2026-05-09 02:57 | -7.98329 | -34.99557 | 2947 ft | 215 kts | 70° |
| 2026-05-09 02:58 | -7.98102 | -34.98130 | 2632 ft | 203 kts | 108° |
| 2026-05-09 02:58 | -7.98902 | -34.97036 | 2489 ft | 197 kts | 149° |
| 2026-05-09 02:58 | -8.00156 | -34.96466 | 2277 ft | 197 kts | 158° |
| 2026-05-09 02:58 | -8.01421 | -34.96024 | 2053 ft | 187 kts | 160° |
| 2026-05-09 02:59 | -8.02611 | -34.95628 | 1819 ft | 172 kts | 160° |
| 2026-05-09 02:59 | -8.03707 | -34.95266 | 1613 ft | 159 kts | 160° |
| 2026-05-09 02:59 | -8.04714 | -34.94933 | 1386 ft | 148 kts | 160° |
| 2026-05-09 02:59 | -8.05675 | -34.94616 | 1203 ft | 143 kts | 161° |
| 2026-05-09 03:00 | -8.06601 | -34.94310 | 1017 ft | 142 kts | 161° |
| 2026-05-09 03:00 | -8.07542 | -34.94000 | 856 ft | 141 kts | 160° |
| 2026-05-09 03:00 | -8.08480 | -34.93690 | 665 ft | 142 kts | 162° |
| 2026-05-09 03:00 | -8.09436 | -34.93371 | 401 ft | 148 kts | 161° |
| 2026-05-09 03:01 | -8.10422 | -34.93048 | 264 ft | 148 kts | 160° |
| 2026-05-09 03:01 | -8.11401 | -34.92723 | 95 ft | 147 kts | 161° |
| 2026-05-09 03:01 | -8.12353 | -34.92407 | 47 ft | 129 kts | 162° |
| 2026-05-09 03:01 | -8.12922 | -34.92222 | 49 ft | 49 kts | 162° |
| 2026-05-09 03:02 | -8.13142 | -34.92148 | 44 ft | 24 kts | 161° |
| 2026-05-09 03:02 | -8.13259 | -34.92051 | 43 ft | 19 kts | 131° |
| 2026-05-09 03:02 | -8.13292 | -34.91999 | 43 ft | 0 kts | 111° |
| 2026-05-09 03:03 | -8.13319 | -34.91967 | 44 ft | 9 kts | 135° |
| 2026-05-09 03:03 | -8.13360 | -34.91931 | 44 ft | 6 kts | 142° |
| 2026-05-09 03:03 | -8.13398 | -34.91915 | 44 ft | 7 kts | 162° |
| 2026-05-09 03:03 | -8.13426 | -34.91899 | 44 ft | 2 kts | 104° |
| 2026-05-09 03:04 | -8.13421 | -34.91881 | 44 ft | 7 kts | 69° |
| 2026-05-09 03:04 | -8.13414 | -34.91862 | 46 ft | 1 kts | 70° |
| 2026-05-09 03:04 | -8.13404 | -34.91833 | 44 ft | 1 kts | 72° |
| 2026-05-09 03:04 | -8.13403 | -34.91831 | 44 ft | 0 kts | 72° |